createdAt,value
2019-05-23T00:01:54.568Z,102060.63
2019-05-23T00:06:56.288Z,102064.83
2019-05-23T00:11:58.303Z,102056.27
2019-05-23T00:16:59.856Z,102062.44
2019-05-23T00:22:02.044Z,102049.96
2019-05-23T00:27:04.068Z,102049.12
2019-05-23T00:32:05.602Z,102044.59
2019-05-23T00:37:07.472Z,102040.77
2019-05-23T00:42:09.253Z,102037.39
2019-05-23T00:47:10.698Z,102041.41
2019-05-23T00:52:12.204Z,102037.53
2019-05-23T00:57:14.011Z,102035.48
2019-05-23T01:02:15.553Z,102038.44
2019-05-23T01:07:17.542Z,102035.24
2019-05-23T01:12:19.235Z,102033.42
2019-05-23T01:17:20.913Z,102033.42
2019-05-23T01:22:22.506Z,102028.27
2019-05-23T01:27:24.319Z,102031.30
2019-05-23T01:32:26.106Z,102029.08
2019-05-23T01:37:27.752Z,102023.58
2019-05-23T01:42:29.298Z,102025.53
2019-05-23T01:47:30.980Z,102026.20
2019-05-23T01:52:32.523Z,102021.92
2019-05-23T01:57:34.693Z,102023.70
2019-05-23T02:02:36.205Z,102015.02
2019-05-23T02:07:37.763Z,102002.68
2019-05-23T02:12:39.312Z,102006.63
2019-05-23T02:17:40.722Z,102007.13
2019-05-23T02:22:42.579Z,102009.25
2019-05-23T02:27:45.028Z,102002.95
2019-05-23T02:32:46.617Z,101992.97
2019-05-23T02:37:48.482Z,102002.17
2019-05-23T02:42:50.298Z,101988.76
2019-05-23T02:47:52.142Z,101987.71
2019-05-23T02:52:53.929Z,101981.44
2019-05-23T02:57:59.126Z,101985.21
2019-05-23T03:03:00.859Z,101980.95
2019-05-23T03:08:02.857Z,101977.76
2019-05-23T03:13:04.353Z,101986.67
2019-05-23T03:18:05.633Z,101978.95
2019-05-23T03:23:09.968Z,101975.98
2019-05-23T03:28:11.730Z,101969.74
2019-05-23T03:33:13.262Z,101971.69
2019-05-23T03:38:14.844Z,101962.25
2019-05-23T03:43:16.322Z,101955.11
2019-05-23T03:48:17.823Z,101948.04
2019-05-23T03:53:19.754Z,101940.49
2019-05-23T03:58:21.620Z,101939.02
2019-05-23T04:03:23.573Z,101943.12
2019-05-23T04:08:25.207Z,101940.16
2019-05-23T04:13:27.433Z,101945.19
2019-05-23T04:18:29.040Z,101944.95
2019-05-23T04:23:30.606Z,101939.95
2019-05-23T04:28:32.160Z,101937.73
2019-05-23T04:33:33.600Z,101940.71
2019-05-23T04:38:36.471Z,101935.80
2019-05-23T04:43:38.763Z,101931.36
2019-05-23T04:48:40.276Z,101934.33
2019-05-23T04:53:41.989Z,101935.23
2019-05-23T04:58:43.473Z,101935.20
2019-05-23T05:03:46.325Z,101932.16
2019-05-23T05:08:47.844Z,101946.20
2019-05-23T05:13:49.612Z,101946.20
2019-05-23T05:18:51.091Z,101946.34
2019-05-23T05:23:52.982Z,101954.85
2019-05-23T05:28:54.907Z,101958.13
2019-05-23T05:33:56.488Z,101960.39
2019-05-23T05:38:58.427Z,101959.92
2019-05-23T05:44:00.228Z,101961.07
2019-05-23T05:49:01.829Z,101960.02
2019-05-23T05:54:03.481Z,101958.95
2019-05-23T05:59:05.597Z,101959.82
2019-05-23T06:04:07.849Z,101962.34
2019-05-23T06:09:09.831Z,101962.39
2019-05-23T06:14:11.406Z,101967.84
2019-05-23T06:19:12.821Z,101965.44
2019-05-23T06:24:14.679Z,101969.41
2019-05-23T06:29:16.367Z,101962.13
2019-05-23T06:34:17.940Z,101962.47
2019-05-23T06:39:19.472Z,101958.89
2019-05-23T06:44:21.322Z,101952.56
2019-05-23T06:49:22.954Z,101948.05
2019-05-23T06:54:24.631Z,101944.66
2019-05-23T06:59:26.041Z,101939.86
2019-05-23T07:04:28.553Z,101937.75
2019-05-23T07:09:30.095Z,101934.78
2019-05-23T07:14:32.275Z,101934.25
2019-05-23T07:19:33.754Z,101934.33
2019-05-23T07:24:35.747Z,101927.06
2019-05-23T07:29:37.853Z,101923.46
2019-05-23T07:34:39.404Z,101932.12
2019-05-23T07:39:40.975Z,101934.03
2019-05-23T07:44:48.333Z,101921.13
2019-05-23T07:49:45.951Z,101921.25
2019-05-23T07:54:48.149Z,101930.79
2019-05-23T07:59:49.705Z,101933.41
2019-05-23T08:04:51.378Z,101932.58
2019-05-23T08:09:53.287Z,101928.01
2019-05-23T08:14:55.002Z,101922.43
2019-05-23T08:19:56.531Z,101919.75
2019-05-23T08:24:58.698Z,101916.86
2019-05-23T08:30:02.358Z,101911.63
2019-05-23T08:35:04.557Z,101918.33
2019-05-23T08:40:06.084Z,101913.73
2019-05-23T08:45:08.169Z,101910.36
2019-05-23T08:50:10.078Z,101903.53
2019-05-23T08:55:18.828Z,101910.08
2019-05-23T09:00:20.775Z,101899.87
2019-05-23T09:05:22.302Z,101905.27
2019-05-23T09:10:23.868Z,101898.55
2019-05-23T09:15:25.455Z,101898.23
2019-05-23T09:20:26.982Z,101888.13
2019-05-23T09:25:28.852Z,101897.58
2019-05-23T09:30:30.350Z,101889.56
2019-05-23T09:35:31.914Z,101888.56
2019-05-23T09:40:33.433Z,101887.27
2019-05-23T09:45:35.686Z,101899.37
2019-05-23T09:50:37.503Z,101888.15
2019-05-23T09:55:39.034Z,101896.62
2019-05-23T10:00:40.535Z,101888.66
2019-05-23T10:05:44.028Z,101886.55
2019-05-23T10:10:45.562Z,101876.70
2019-05-23T10:15:47.441Z,101875.80
2019-05-23T10:20:49.411Z,101872.24
2019-05-23T10:25:50.917Z,101869.52
2019-05-23T10:30:52.457Z,101865.95
2019-05-23T10:36:00.436Z,101873.14
2019-05-23T10:40:57.405Z,101872.65
2019-05-23T10:45:59.311Z,101871.23
2019-05-23T10:51:01.218Z,101862.78
2019-05-23T10:56:02.706Z,101865.93
2019-05-23T11:01:04.572Z,101856.08
2019-05-23T11:06:15.647Z,101861.03
2019-05-23T11:11:14.323Z,101860.55
2019-05-23T11:16:14.230Z,101848.06
2019-05-23T11:21:16.654Z,101847.12
2019-05-23T11:26:18.123Z,101846.14
2019-05-23T11:31:19.689Z,101843.45
2019-05-23T11:36:34.424Z,101846.50
2019-05-23T11:41:25.143Z,101846.06
2019-05-23T11:46:26.644Z,101856.30
2019-05-23T11:51:28.332Z,101855.88
2019-05-23T11:56:29.942Z,101841.94
2019-05-23T12:01:31.496Z,101845.97
2019-05-23T12:06:51.700Z,101831.66
2019-05-23T12:11:42.510Z,101846.11
2019-05-23T12:16:41.868Z,101828.59
2019-05-23T12:21:44.039Z,101822.53
2019-05-23T12:26:46.270Z,101813.34
2019-05-23T12:31:49.510Z,101813.34
2019-05-23T12:36:51.271Z,101817.73
2019-05-23T12:41:52.768Z,101818.53
2019-05-23T12:46:54.317Z,101803.36
2019-05-23T12:51:56.394Z,101800.33
2019-05-23T12:56:58.092Z,101800.33
2019-05-23T13:01:59.782Z,101805.81
2019-05-23T13:07:01.150Z,101807.36
2019-05-23T13:12:02.825Z,101807.36
2019-05-23T13:17:04.342Z,101802.55
2019-05-23T13:22:06.638Z,101788.66
2019-05-23T13:27:08.230Z,101799.53
2019-05-23T13:32:09.761Z,101799.53
2019-05-23T13:37:16.474Z,101796.22
2019-05-23T13:42:15.167Z,101786.45
2019-05-23T13:47:16.687Z,101786.54
2019-05-23T13:52:18.260Z,101786.54
2019-05-23T13:57:19.746Z,101793.75
2019-05-23T14:02:21.647Z,101777.67
2019-05-23T14:07:23.478Z,101784.04
2019-05-23T14:12:25.119Z,101781.20
2019-05-23T14:17:26.740Z,101777.73
2019-05-23T14:22:28.569Z,101783.08
2019-05-23T14:27:30.321Z,101774.76
2019-05-23T14:32:31.919Z,101766.19
2019-05-23T14:37:33.888Z,101768.86
2019-05-23T14:42:35.536Z,101768.76
2019-05-23T14:47:37.658Z,101776.23
2019-05-23T14:52:39.204Z,101768.27
2019-05-23T14:57:41.194Z,101761.20
2019-05-23T15:02:42.737Z,101764.23
2019-05-23T15:07:44.117Z,101757.00
2019-05-23T15:12:45.427Z,101758.34
2019-05-23T15:17:47.166Z,101749.83
2019-05-23T15:22:48.712Z,101743.66
2019-05-23T15:27:50.640Z,101744.61
2019-05-23T15:32:51.996Z,101745.14
2019-05-23T15:37:53.527Z,101740.89
2019-05-23T15:42:55.448Z,101736.66
2019-05-23T15:47:56.741Z,101746.38
2019-05-23T15:52:58.657Z,101745.14
2019-05-23T15:58:00.628Z,101747.50
2019-05-23T16:03:02.193Z,101740.77
2019-05-23T16:08:03.937Z,101735.56
2019-05-23T16:13:05.879Z,101739.73
2019-05-23T16:18:07.575Z,101741.47
2019-05-23T16:23:09.173Z,101743.92
2019-05-23T16:28:10.744Z,101744.66
2019-05-23T16:33:12.664Z,101742.14
2019-05-23T16:38:14.465Z,101737.00
2019-05-23T16:43:16.331Z,101737.31
2019-05-23T16:48:17.830Z,101733.86
2019-05-23T16:53:19.497Z,101726.99
2019-05-23T16:58:21.685Z,101729.38
2019-05-23T17:03:23.470Z,101715.59
2019-05-23T17:08:25.283Z,101712.45
2019-05-23T17:13:28.994Z,101714.61
2019-05-23T17:18:30.811Z,101711.91
2019-05-23T17:23:33.704Z,101710.88
2019-05-23T17:28:38.590Z,101704.48
2019-05-23T17:33:40.690Z,101688.63
2019-05-23T17:38:43.078Z,101684.44
2019-05-23T17:43:44.557Z,101691.61
2019-05-23T17:48:49.218Z,101693.14
2019-05-23T17:53:50.684Z,101686.27
2019-05-23T17:58:52.542Z,101681.10
2019-05-23T18:03:54.451Z,101674.78
2019-05-23T18:08:56.013Z,101674.36
2019-05-23T18:13:57.959Z,101674.28
2019-05-23T18:19:00.429Z,101672.30
2019-05-23T18:24:02.019Z,101672.29
2019-05-23T18:29:03.674Z,101675.09
2019-05-23T18:34:05.178Z,101675.09
2019-05-23T18:39:07.187Z,101677.89
2019-05-23T18:44:08.745Z,101674.89
2019-05-23T18:49:10.275Z,101667.41
2019-05-23T18:54:11.835Z,101672.43
2019-05-23T18:59:13.660Z,101676.05
2019-05-23T19:04:15.207Z,101676.17
2019-05-23T19:09:17.172Z,101678.03
2019-05-23T19:14:19.179Z,101678.04
2019-05-23T19:19:20.755Z,101683.42
2019-05-23T19:24:22.519Z,101683.41
2019-05-23T19:29:24.423Z,101685.64
2019-05-23T19:34:26.709Z,101684.23
2019-05-23T19:39:28.248Z,101684.20
2019-05-23T19:44:30.040Z,101683.27
2019-05-23T19:49:31.560Z,101686.72
2019-05-23T19:54:33.406Z,101680.35
2019-05-23T19:59:35.339Z,101682.10
2019-05-23T20:04:36.872Z,101681.89
2019-05-23T20:09:39.464Z,101678.58
2019-05-23T20:14:41.385Z,101682.83
2019-05-23T20:19:42.978Z,101679.47
2019-05-23T20:24:45.187Z,101676.01
2019-05-23T20:29:46.754Z,101679.24
2019-05-23T20:34:48.605Z,101679.42
2019-05-23T20:39:50.192Z,101679.61
2019-05-23T20:44:51.596Z,101682.98
2019-05-23T20:49:53.841Z,101683.11
2019-05-23T20:54:55.598Z,101678.94
2019-05-23T20:59:57.100Z,101675.43
2019-05-23T21:04:58.696Z,101670.67
2019-05-23T21:10:00.566Z,101665.13
2019-05-23T21:15:02.143Z,101670.66
2019-05-23T21:20:04.047Z,101666.00
2019-05-23T21:25:05.594Z,101668.29
2019-05-23T21:30:07.109Z,101669.34
2019-05-23T21:35:09.699Z,101663.38
2019-05-23T21:40:15.907Z,101671.27
2019-05-23T21:45:17.467Z,101673.27
2019-05-23T21:50:19.324Z,101671.49
2019-05-23T21:55:34.610Z,101673.07
2019-05-23T22:01:06.017Z,101675.08
2019-05-23T22:06:10.373Z,101678.02
2019-05-23T22:11:12.320Z,101673.16
2019-05-23T22:16:13.961Z,101663.05
2019-05-23T22:21:15.466Z,101664.78
2019-05-23T22:26:17.472Z,101660.72
2019-05-23T22:31:19.202Z,101654.02
2019-05-23T22:36:21.510Z,101664.27
2019-05-23T22:41:23.307Z,101661.48
2019-05-23T22:46:24.786Z,101655.45
2019-05-23T22:51:26.341Z,101659.42
2019-05-23T22:56:27.870Z,101657.76
2019-05-23T23:01:29.626Z,101657.50
2019-05-23T23:06:31.089Z,101652.01
2019-05-23T23:11:32.569Z,101647.41
2019-05-23T23:16:34.696Z,101639.03
2019-05-23T23:21:36.488Z,101636.52
2019-05-23T23:26:38.007Z,101633.27
2019-05-23T23:31:39.660Z,101628.30
2019-05-23T23:36:41.386Z,101627.43
2019-05-23T23:41:42.881Z,101615.19
2019-05-23T23:46:44.477Z,101619.70
2019-05-23T23:51:45.981Z,101608.14
2019-05-23T23:56:48.157Z,101611.48
